sensor_id;sensor_type;location;lat;lon;timestamp;P1;durP1;ratioP1;P2;durP2;ratioP2
64037;SDS011;54641;50.168;8.492;2022-09-12T00:00:38;11.20;;;7.90;;
64037;SDS011;54641;50.168;8.492;2022-09-12T00:03:09;12.50;;;8.90;;
64037;SDS011;54641;50.168;8.492;2022-09-12T00:05:42;13.30;;;9.00;;
64037;SDS011;54641;50.168;8.492;2022-09-12T00:08:13;12.60;;;7.80;;
64037;SDS011;54641;50.168;8.492;2022-09-12T00:10:44;10.00;;;7.50;;
64037;SDS011;54641;50.168;8.492;2022-09-12T00:13:14;11.50;;;8.10;;
64037;SDS011;54641;50.168;8.492;2022-09-12T00:15:44;14.00;;;8.50;;
64037;SDS011;54641;50.168;8.492;2022-09-12T00:18:15;12.80;;;7.70;;
64037;SDS011;54641;50.168;8.492;2022-09-12T00:20:46;12.20;;;8.50;;
64037;SDS011;54641;50.168;8.492;2022-09-12T00:23:16;13.80;;;8.80;;
64037;SDS011;54641;50.168;8.492;2022-09-12T00:25:47;12.10;;;8.20;;
64037;SDS011;54641;50.168;8.492;2022-09-12T00:28:18;10.90;;;7.30;;
64037;SDS011;54641;50.168;8.492;2022-09-12T00:30:48;11.50;;;7.80;;
64037;SDS011;54641;50.168;8.492;2022-09-12T00:33:19;16.30;;;8.90;;
64037;SDS011;54641;50.168;8.492;2022-09-12T00:35:50;12.10;;;8.30;;
64037;SDS011;54641;50.168;8.492;2022-09-12T00:38:20;14.00;;;8.50;;
64037;SDS011;54641;50.168;8.492;2022-09-12T00:40:51;15.00;;;9.20;;
64037;SDS011;54641;50.168;8.492;2022-09-12T00:43:35;13.10;;;8.60;;
64037;SDS011;54641;50.168;8.492;2022-09-12T00:46:09;13.30;;;8.60;;
64037;SDS011;54641;50.168;8.492;2022-09-12T00:48:45;14.40;;;8.90;;
64037;SDS011;54641;50.168;8.492;2022-09-12T00:51:18;15.00;;;9.20;;
64037;SDS011;54641;50.168;8.492;2022-09-12T00:53:48;12.60;;;8.10;;
64037;SDS011;54641;50.168;8.492;2022-09-12T00:56:20;12.80;;;8.50;;
64037;SDS011;54641;50.168;8.492;2022-09-12T00:58:51;14.30;;;8.50;;
64037;SDS011;54641;50.168;8.492;2022-09-12T01:01:25;14.30;;;9.00;;
64037;SDS011;54641;50.168;8.492;2022-09-12T01:03:59;13.50;;;8.30;;
64037;SDS011;54641;50.168;8.492;2022-09-12T01:06:31;12.40;;;8.20;;
64037;SDS011;54641;50.168;8.492;2022-09-12T01:09:04;13.00;;;8.40;;
64037;SDS011;54641;50.168;8.492;2022-09-12T01:11:35;16.40;;;8.90;;
64037;SDS011;54641;50.168;8.492;2022-09-12T01:14:06;15.30;;;9.70;;
64037;SDS011;54641;50.168;8.492;2022-09-12T01:16:38;13.80;;;8.70;;
64037;SDS011;54641;50.168;8.492;2022-09-12T01:19:13;13.70;;;8.50;;
64037;SDS011;54641;50.168;8.492;2022-09-12T01:22:08;11.60;;;7.70;;
64037;SDS011;54641;50.168;8.492;2022-09-12T01:24:52;13.60;;;8.50;;
64037;SDS011;54641;50.168;8.492;2022-09-12T01:27:34;15.10;;;9.00;;
64037;SDS011;54641;50.168;8.492;2022-09-12T01:33:17;14.40;;;8.90;;
64037;SDS011;54641;50.168;8.492;2022-09-12T01:36:22;11.30;;;7.50;;
64037;SDS011;54641;50.168;8.492;2022-09-12T01:41:31;13.70;;;8.90;;
64037;SDS011;54641;50.168;8.492;2022-09-12T01:44:12;13.80;;;8.10;;
64037;SDS011;54641;50.168;8.492;2022-09-12T01:46:47;16.50;;;10.40;;
64037;SDS011;54641;50.168;8.492;2022-09-12T01:49:22;14.60;;;9.20;;
64037;SDS011;54641;50.168;8.492;2022-09-12T01:51:57;12.50;;;8.60;;
64037;SDS011;54641;50.168;8.492;2022-09-12T01:54:32;13.90;;;8.80;;
64037;SDS011;54641;50.168;8.492;2022-09-12T01:57:07;15.60;;;9.10;;
64037;SDS011;54641;50.168;8.492;2022-09-12T01:59:42;15.50;;;9.20;;
64037;SDS011;54641;50.168;8.492;2022-09-12T02:02:13;15.30;;;9.90;;
64037;SDS011;54641;50.168;8.492;2022-09-12T02:04:46;16.60;;;9.70;;
64037;SDS011;54641;50.168;8.492;2022-09-12T02:07:20;15.80;;;9.30;;
64037;SDS011;54641;50.168;8.492;2022-09-12T02:09:55;19.70;;;9.70;;
64037;SDS011;54641;50.168;8.492;2022-09-12T02:12:33;15.70;;;10.00;;
64037;SDS011;54641;50.168;8.492;2022-09-12T02:15:08;16.80;;;10.60;;
64037;SDS011;54641;50.168;8.492;2022-09-12T02:17:40;18.20;;;11.10;;
64037;SDS011;54641;50.168;8.492;2022-09-12T02:20:13;17.40;;;10.10;;
64037;SDS011;54641;50.168;8.492;2022-09-12T02:23:10;15.80;;;10.20;;
64037;SDS011;54641;50.168;8.492;2022-09-12T02:25:44;15.10;;;10.50;;
64037;SDS011;54641;50.168;8.492;2022-09-12T02:28:17;18.40;;;10.90;;
64037;SDS011;54641;50.168;8.492;2022-09-12T02:30:53;16.90;;;11.20;;
64037;SDS011;54641;50.168;8.492;2022-09-12T02:33:29;16.00;;;10.50;;
64037;SDS011;54641;50.168;8.492;2022-09-12T02:36:06;15.30;;;10.50;;
64037;SDS011;54641;50.168;8.492;2022-09-12T02:38:42;15.90;;;10.50;;
64037;SDS011;54641;50.168;8.492;2022-09-12T02:43:43;19.40;;;11.00;;
64037;SDS011;54641;50.168;8.492;2022-09-12T02:46:14;17.40;;;10.90;;
64037;SDS011;54641;50.168;8.492;2022-09-12T02:48:48;15.80;;;10.30;;
64037;SDS011;54641;50.168;8.492;2022-09-12T02:51:18;18.30;;;11.10;;
64037;SDS011;54641;50.168;8.492;2022-09-12T02:53:50;16.80;;;9.80;;
64037;SDS011;54641;50.168;8.492;2022-09-12T02:56:23;17.20;;;11.10;;
64037;SDS011;54641;50.168;8.492;2022-09-12T02:58:56;15.00;;;10.30;;
64037;SDS011;54641;50.168;8.492;2022-09-12T03:01:36;16.00;;;10.50;;
64037;SDS011;54641;50.168;8.492;2022-09-12T03:04:26;17.20;;;10.80;;
64037;SDS011;54641;50.168;8.492;2022-09-12T03:07:09;17.20;;;10.40;;
64037;SDS011;54641;50.168;8.492;2022-09-12T03:09:43;15.20;;;10.80;;
64037;SDS011;54641;50.168;8.492;2022-09-12T03:12:19;16.50;;;10.60;;
64037;SDS011;54641;50.168;8.492;2022-09-12T03:18:00;17.30;;;10.70;;
64037;SDS011;54641;50.168;8.492;2022-09-12T03:20:42;19.50;;;11.20;;
64037;SDS011;54641;50.168;8.492;2022-09-12T03:23:20;17.90;;;10.90;;
64037;SDS011;54641;50.168;8.492;2022-09-12T03:25:55;17.70;;;10.20;;
64037;SDS011;54641;50.168;8.492;2022-09-12T03:28:27;17.80;;;10.70;;
64037;SDS011;54641;50.168;8.492;2022-09-12T03:30:57;17.30;;;10.90;;
64037;SDS011;54641;50.168;8.492;2022-09-12T03:33:28;18.20;;;10.30;;
64037;SDS011;54641;50.168;8.492;2022-09-12T03:35:58;16.50;;;10.70;;
64037;SDS011;54641;50.168;8.492;2022-09-12T03:38:29;17.70;;;10.10;;
64037;SDS011;54641;50.168;8.492;2022-09-12T03:40:59;13.40;;;9.80;;
64037;SDS011;54641;50.168;8.492;2022-09-12T03:43:30;15.70;;;11.20;;
64037;SDS011;54641;50.168;8.492;2022-09-12T03:46:00;16.50;;;10.40;;
64037;SDS011;54641;50.168;8.492;2022-09-12T03:48:30;16.50;;;11.10;;
64037;SDS011;54641;50.168;8.492;2022-09-12T03:51:01;16.50;;;10.70;;
64037;SDS011;54641;50.168;8.492;2022-09-12T03:53:32;17.60;;;11.00;;
64037;SDS011;54641;50.168;8.492;2022-09-12T03:56:06;18.20;;;11.00;;
64037;SDS011;54641;50.168;8.492;2022-09-12T03:58:37;17.50;;;10.00;;
64037;SDS011;54641;50.168;8.492;2022-09-12T04:01:09;14.80;;;10.30;;
64037;SDS011;54641;50.168;8.492;2022-09-12T04:03:40;17.70;;;10.50;;
64037;SDS011;54641;50.168;8.492;2022-09-12T04:06:11;17.00;;;10.90;;
64037;SDS011;54641;50.168;8.492;2022-09-12T04:08:42;19.30;;;11.60;;
64037;SDS011;54641;50.168;8.492;2022-09-12T04:11:18;16.60;;;11.10;;
64037;SDS011;54641;50.168;8.492;2022-09-12T04:13:49;19.00;;;11.20;;
64037;SDS011;54641;50.168;8.492;2022-09-12T04:16:20;17.90;;;11.30;;
64037;SDS011;54641;50.168;8.492;2022-09-12T04:18:50;17.10;;;10.80;;
64037;SDS011;54641;50.168;8.492;2022-09-12T04:21:21;20.60;;;11.80;;
64037;SDS011;54641;50.168;8.492;2022-09-12T04:23:52;19.70;;;12.20;;
64037;SDS011;54641;50.168;8.492;2022-09-12T04:26:22;19.60;;;12.00;;
64037;SDS011;54641;50.168;8.492;2022-09-12T04:28:53;17.70;;;11.60;;
64037;SDS011;54641;50.168;8.492;2022-09-12T04:31:24;19.30;;;12.10;;
64037;SDS011;54641;50.168;8.492;2022-09-12T04:33:54;19.20;;;11.60;;
64037;SDS011;54641;50.168;8.492;2022-09-12T04:36:26;17.60;;;11.30;;
64037;SDS011;54641;50.168;8.492;2022-09-12T04:38:57;17.20;;;11.50;;
64037;SDS011;54641;50.168;8.492;2022-09-12T04:41:29;17.20;;;11.90;;
64037;SDS011;54641;50.168;8.492;2022-09-12T04:44:01;16.30;;;11.30;;
64037;SDS011;54641;50.168;8.492;2022-09-12T04:46:34;16.90;;;10.30;;
64037;SDS011;54641;50.168;8.492;2022-09-12T04:49:06;16.20;;;11.20;;
64037;SDS011;54641;50.168;8.492;2022-09-12T04:51:37;20.20;;;12.60;;
64037;SDS011;54641;50.168;8.492;2022-09-12T04:54:10;18.50;;;11.40;;
64037;SDS011;54641;50.168;8.492;2022-09-12T04:56:42;18.20;;;11.00;;
64037;SDS011;54641;50.168;8.492;2022-09-12T04:59:15;19.30;;;10.80;;
64037;SDS011;54641;50.168;8.492;2022-09-12T05:01:47;17.60;;;11.60;;
64037;SDS011;54641;50.168;8.492;2022-09-12T05:04:17;19.00;;;12.20;;
64037;SDS011;54641;50.168;8.492;2022-09-12T05:06:48;18.40;;;11.00;;
64037;SDS011;54641;50.168;8.492;2022-09-12T05:09:19;18.60;;;10.70;;
64037;SDS011;54641;50.168;8.492;2022-09-12T05:11:49;15.60;;;10.80;;
64037;SDS011;54641;50.168;8.492;2022-09-12T05:14:31;18.10;;;11.00;;
64037;SDS011;54641;50.168;8.492;2022-09-12T05:17:02;18.00;;;12.10;;
64037;SDS011;54641;50.168;8.492;2022-09-12T05:19:33;17.10;;;11.60;;
64037;SDS011;54641;50.168;8.492;2022-09-12T05:22:04;16.50;;;11.00;;
64037;SDS011;54641;50.168;8.492;2022-09-12T05:24:34;18.90;;;11.20;;
64037;SDS011;54641;50.168;8.492;2022-09-12T05:27:15;17.80;;;11.30;;
64037;SDS011;54641;50.168;8.492;2022-09-12T05:29:45;16.60;;;11.10;;
64037;SDS011;54641;50.168;8.492;2022-09-12T05:32:16;18.10;;;10.00;;
64037;SDS011;54641;50.168;8.492;2022-09-12T05:34:46;15.70;;;10.50;;
64037;SDS011;54641;50.168;8.492;2022-09-12T05:37:17;16.30;;;10.80;;
64037;SDS011;54641;50.168;8.492;2022-09-12T05:39:47;15.80;;;11.10;;
64037;SDS011;54641;50.168;8.492;2022-09-12T05:42:18;17.70;;;12.10;;
64037;SDS011;54641;50.168;8.492;2022-09-12T05:44:50;16.00;;;11.30;;
64037;SDS011;54641;50.168;8.492;2022-09-12T05:47:20;14.60;;;10.70;;
64037;SDS011;54641;50.168;8.492;2022-09-12T05:49:51;12.50;;;9.60;;
64037;SDS011;54641;50.168;8.492;2022-09-12T05:52:21;14.50;;;10.20;;
64037;SDS011;54641;50.168;8.492;2022-09-12T05:54:51;15.00;;;10.80;;
64037;SDS011;54641;50.168;8.492;2022-09-12T05:57:21;18.60;;;11.50;;
64037;SDS011;54641;50.168;8.492;2022-09-12T05:59:52;16.10;;;10.40;;
64037;SDS011;54641;50.168;8.492;2022-09-12T06:02:23;14.70;;;9.70;;
64037;SDS011;54641;50.168;8.492;2022-09-12T06:04:53;14.10;;;10.60;;
64037;SDS011;54641;50.168;8.492;2022-09-12T06:07:24;11.50;;;8.30;;
64037;SDS011;54641;50.168;8.492;2022-09-12T06:09:54;10.90;;;8.00;;
64037;SDS011;54641;50.168;8.492;2022-09-12T06:12:26;12.90;;;9.00;;
64037;SDS011;54641;50.168;8.492;2022-09-12T06:14:57;12.90;;;8.20;;
64037;SDS011;54641;50.168;8.492;2022-09-12T06:17:27;11.30;;;7.80;;
64037;SDS011;54641;50.168;8.492;2022-09-12T06:19:58;10.40;;;6.70;;
64037;SDS011;54641;50.168;8.492;2022-09-12T06:22:28;8.70;;;6.70;;
64037;SDS011;54641;50.168;8.492;2022-09-12T06:24:58;11.50;;;8.20;;
64037;SDS011;54641;50.168;8.492;2022-09-12T06:27:29;10.60;;;7.90;;
64037;SDS011;54641;50.168;8.492;2022-09-12T06:30:00;9.60;;;7.50;;
64037;SDS011;54641;50.168;8.492;2022-09-12T06:32:30;10.70;;;7.40;;
64037;SDS011;54641;50.168;8.492;2022-09-12T06:35:01;9.20;;;7.20;;
64037;SDS011;54641;50.168;8.492;2022-09-12T06:37:32;10.00;;;7.40;;
64037;SDS011;54641;50.168;8.492;2022-09-12T06:40:03;10.30;;;6.60;;
64037;SDS011;54641;50.168;8.492;2022-09-12T06:42:36;9.10;;;6.90;;
64037;SDS011;54641;50.168;8.492;2022-09-12T06:45:08;9.50;;;7.30;;
64037;SDS011;54641;50.168;8.492;2022-09-12T06:47:39;9.10;;;6.60;;
64037;SDS011;54641;50.168;8.492;2022-09-12T06:50:09;7.60;;;6.70;;
64037;SDS011;54641;50.168;8.492;2022-09-12T06:52:39;10.50;;;6.80;;
64037;SDS011;54641;50.168;8.492;2022-09-12T06:55:11;9.00;;;6.30;;
64037;SDS011;54641;50.168;8.492;2022-09-12T06:57:47;8.50;;;6.80;;
64037;SDS011;54641;50.168;8.492;2022-09-12T07:00:17;11.00;;;6.70;;
64037;SDS011;54641;50.168;8.492;2022-09-12T07:02:48;8.70;;;6.50;;
64037;SDS011;54641;50.168;8.492;2022-09-12T07:05:19;8.60;;;6.30;;
64037;SDS011;54641;50.168;8.492;2022-09-12T07:07:49;7.10;;;5.90;;
64037;SDS011;54641;50.168;8.492;2022-09-12T07:10:19;7.60;;;6.00;;
64037;SDS011;54641;50.168;8.492;2022-09-12T07:12:50;8.10;;;6.50;;
64037;SDS011;54641;50.168;8.492;2022-09-12T07:15:21;8.40;;;6.60;;
64037;SDS011;54641;50.168;8.492;2022-09-12T07:17:51;8.50;;;5.80;;
64037;SDS011;54641;50.168;8.492;2022-09-12T07:20:21;9.00;;;6.00;;
64037;SDS011;54641;50.168;8.492;2022-09-12T07:22:52;8.30;;;6.80;;
64037;SDS011;54641;50.168;8.492;2022-09-12T07:25:22;9.00;;;7.50;;
64037;SDS011;54641;50.168;8.492;2022-09-12T07:27:52;8.20;;;7.10;;
64037;SDS011;54641;50.168;8.492;2022-09-12T07:30:23;10.70;;;7.60;;
64037;SDS011;54641;50.168;8.492;2022-09-12T07:32:53;10.10;;;6.80;;
64037;SDS011;54641;50.168;8.492;2022-09-12T07:35:24;9.00;;;7.40;;
64037;SDS011;54641;50.168;8.492;2022-09-12T07:37:54;8.40;;;7.20;;
64037;SDS011;54641;50.168;8.492;2022-09-12T07:40:24;9.20;;;7.70;;
64037;SDS011;54641;50.168;8.492;2022-09-12T07:42:55;9.20;;;8.00;;
64037;SDS011;54641;50.168;8.492;2022-09-12T07:45:25;8.20;;;7.30;;
64037;SDS011;54641;50.168;8.492;2022-09-12T07:47:56;9.10;;;7.70;;
64037;SDS011;54641;50.168;8.492;2022-09-12T07:50:26;8.20;;;7.40;;
64037;SDS011;54641;50.168;8.492;2022-09-12T07:52:57;8.60;;;7.70;;
64037;SDS011;54641;50.168;8.492;2022-09-12T07:55:27;10.30;;;8.50;;
64037;SDS011;54641;50.168;8.492;2022-09-12T07:57:57;9.20;;;7.60;;
64037;SDS011;54641;50.168;8.492;2022-09-12T08:00:28;8.30;;;7.00;;
64037;SDS011;54641;50.168;8.492;2022-09-12T08:03:02;10.50;;;7.30;;
64037;SDS011;54641;50.168;8.492;2022-09-12T08:05:33;10.00;;;8.50;;
64037;SDS011;54641;50.168;8.492;2022-09-12T08:08:04;12.10;;;9.40;;
64037;SDS011;54641;50.168;8.492;2022-09-12T08:10:34;9.40;;;8.30;;
64037;SDS011;54641;50.168;8.492;2022-09-12T08:13:04;14.00;;;8.80;;
64037;SDS011;54641;50.168;8.492;2022-09-12T08:15:37;9.20;;;8.20;;
64037;SDS011;54641;50.168;8.492;2022-09-12T08:18:07;10.70;;;8.60;;
64037;SDS011;54641;50.168;8.492;2022-09-12T08:20:38;9.60;;;8.60;;
64037;SDS011;54641;50.168;8.492;2022-09-12T08:23:08;9.30;;;7.90;;
64037;SDS011;54641;50.168;8.492;2022-09-12T08:25:39;9.30;;;8.20;;
64037;SDS011;54641;50.168;8.492;2022-09-12T08:28:09;12.70;;;9.30;;
64037;SDS011;54641;50.168;8.492;2022-09-12T08:30:39;9.90;;;8.90;;
64037;SDS011;54641;50.168;8.492;2022-09-12T08:33:10;9.20;;;8.20;;
64037;SDS011;54641;50.168;8.492;2022-09-12T08:35:40;10.80;;;8.30;;
64037;SDS011;54641;50.168;8.492;2022-09-12T08:38:10;11.80;;;9.80;;
64037;SDS011;54641;50.168;8.492;2022-09-12T08:40:43;9.20;;;7.70;;
64037;SDS011;54641;50.168;8.492;2022-09-12T08:43:21;11.30;;;8.30;;
64037;SDS011;54641;50.168;8.492;2022-09-12T08:45:59;11.00;;;9.00;;
64037;SDS011;54641;50.168;8.492;2022-09-12T08:48:32;9.70;;;7.90;;
64037;SDS011;54641;50.168;8.492;2022-09-12T08:51:03;11.20;;;8.90;;
64037;SDS011;54641;50.168;8.492;2022-09-12T08:53:33;11.60;;;9.10;;
64037;SDS011;54641;50.168;8.492;2022-09-12T08:56:05;12.70;;;9.60;;
64037;SDS011;54641;50.168;8.492;2022-09-12T08:58:38;10.50;;;9.10;;
64037;SDS011;54641;50.168;8.492;2022-09-12T09:01:12;11.90;;;9.50;;
64037;SDS011;54641;50.168;8.492;2022-09-12T09:03:53;11.20;;;10.00;;
64037;SDS011;54641;50.168;8.492;2022-09-12T09:06:37;10.40;;;8.60;;
64037;SDS011;54641;50.168;8.492;2022-09-12T09:09:20;10.80;;;9.20;;
64037;SDS011;54641;50.168;8.492;2022-09-12T09:11:59;11.10;;;9.00;;
64037;SDS011;54641;50.168;8.492;2022-09-12T09:14:44;12.20;;;9.50;;
64037;SDS011;54641;50.168;8.492;2022-09-12T09:17:24;11.20;;;8.60;;
64037;SDS011;54641;50.168;8.492;2022-09-12T09:19:58;10.60;;;9.10;;
64037;SDS011;54641;50.168;8.492;2022-09-12T09:22:35;11.50;;;10.30;;
64037;SDS011;54641;50.168;8.492;2022-09-12T09:25:09;26.50;;;9.80;;
64037;SDS011;54641;50.168;8.492;2022-09-12T09:27:49;10.40;;;9.30;;
64037;SDS011;54641;50.168;8.492;2022-09-12T09:30:24;12.20;;;8.80;;
64037;SDS011;54641;50.168;8.492;2022-09-12T09:32:55;10.70;;;8.80;;
64037;SDS011;54641;50.168;8.492;2022-09-12T09:35:31;8.90;;;7.60;;
64037;SDS011;54641;50.168;8.492;2022-09-12T09:38:12;9.50;;;8.40;;
64037;SDS011;54641;50.168;8.492;2022-09-12T09:40:52;10.10;;;8.00;;
64037;SDS011;54641;50.168;8.492;2022-09-12T09:43:28;12.20;;;8.50;;
64037;SDS011;54641;50.168;8.492;2022-09-12T09:45:59;8.70;;;7.60;;
64037;SDS011;54641;50.168;8.492;2022-09-12T09:48:30;10.10;;;8.80;;
64037;SDS011;54641;50.168;8.492;2022-09-12T09:51:03;9.90;;;8.80;;
64037;SDS011;54641;50.168;8.492;2022-09-12T09:53:37;11.90;;;9.30;;
64037;SDS011;54641;50.168;8.492;2022-09-12T09:56:14;13.30;;;8.40;;
64037;SDS011;54641;50.168;8.492;2022-09-12T09:58:52;10.20;;;8.80;;
64037;SDS011;54641;50.168;8.492;2022-09-12T10:01:23;12.30;;;10.30;;
64037;SDS011;54641;50.168;8.492;2022-09-12T10:03:54;10.30;;;9.10;;
64037;SDS011;54641;50.168;8.492;2022-09-12T10:06:27;10.30;;;8.40;;
64037;SDS011;54641;50.168;8.492;2022-09-12T10:09:05;9.50;;;8.50;;
64037;SDS011;54641;50.168;8.492;2022-09-12T10:11:44;9.90;;;8.60;;
64037;SDS011;54641;50.168;8.492;2022-09-12T10:14:32;10.20;;;8.00;;
64037;SDS011;54641;50.168;8.492;2022-09-12T10:17:25;10.00;;;7.80;;
64037;SDS011;54641;50.168;8.492;2022-09-12T10:20:01;9.40;;;8.40;;
64037;SDS011;54641;50.168;8.492;2022-09-12T10:22:48;11.20;;;8.70;;
64037;SDS011;54641;50.168;8.492;2022-09-12T10:25:19;11.50;;;9.00;;
64037;SDS011;54641;50.168;8.492;2022-09-12T10:27:53;11.70;;;8.40;;
64037;SDS011;54641;50.168;8.492;2022-09-12T10:30:26;10.60;;;8.10;;
64037;SDS011;54641;50.168;8.492;2022-09-12T10:32:58;9.60;;;8.40;;
64037;SDS011;54641;50.168;8.492;2022-09-12T10:35:42;8.90;;;7.80;;
64037;SDS011;54641;50.168;8.492;2022-09-12T10:38:16;10.90;;;7.60;;
64037;SDS011;54641;50.168;8.492;2022-09-12T10:40:55;8.60;;;7.10;;
64037;SDS011;54641;50.168;8.492;2022-09-12T10:43:28;8.40;;;6.70;;
64037;SDS011;54641;50.168;8.492;2022-09-12T10:48:50;9.40;;;8.00;;
64037;SDS011;54641;50.168;8.492;2022-09-12T10:51:40;9.90;;;6.60;;
64037;SDS011;54641;50.168;8.492;2022-09-12T10:54:10;8.70;;;7.80;;
64037;SDS011;54641;50.168;8.492;2022-09-12T10:56:43;8.60;;;6.90;;
64037;SDS011;54641;50.168;8.492;2022-09-12T10:59:24;9.10;;;7.40;;
64037;SDS011;54641;50.168;8.492;2022-09-12T11:02:10;10.00;;;7.10;;
64037;SDS011;54641;50.168;8.492;2022-09-12T11:04:48;8.70;;;7.80;;
64037;SDS011;54641;50.168;8.492;2022-09-12T11:07:31;9.60;;;8.20;;
64037;SDS011;54641;50.168;8.492;2022-09-12T11:12:42;9.90;;;8.90;;
64037;SDS011;54641;50.168;8.492;2022-09-12T11:15:30;11.20;;;8.10;;
64037;SDS011;54641;50.168;8.492;2022-09-12T11:18:07;8.10;;;7.30;;
64037;SDS011;54641;50.168;8.492;2022-09-12T11:20:50;9.30;;;8.00;;
64037;SDS011;54641;50.168;8.492;2022-09-12T11:23:33;8.90;;;7.90;;
64037;SDS011;54641;50.168;8.492;2022-09-12T11:26:25;8.40;;;7.20;;
64037;SDS011;54641;50.168;8.492;2022-09-12T11:29:09;9.50;;;8.50;;
64037;SDS011;54641;50.168;8.492;2022-09-12T11:31:47;8.60;;;7.80;;
64037;SDS011;54641;50.168;8.492;2022-09-12T11:34:24;8.00;;;6.60;;
64037;SDS011;54641;50.168;8.492;2022-09-12T11:37:05;10.10;;;8.40;;
64037;SDS011;54641;50.168;8.492;2022-09-12T11:39:45;9.50;;;8.30;;
64037;SDS011;54641;50.168;8.492;2022-09-12T11:42:22;9.30;;;7.80;;
64037;SDS011;54641;50.168;8.492;2022-09-12T11:44:58;9.20;;;8.30;;
64037;SDS011;54641;50.168;8.492;2022-09-12T11:47:31;10.30;;;7.80;;
64037;SDS011;54641;50.168;8.492;2022-09-12T11:50:04;11.30;;;8.50;;
64037;SDS011;54641;50.168;8.492;2022-09-12T11:52:46;10.20;;;9.10;;
64037;SDS011;54641;50.168;8.492;2022-09-12T11:55:18;9.80;;;8.80;;
64037;SDS011;54641;50.168;8.492;2022-09-12T11:57:51;10.20;;;9.20;;
64037;SDS011;54641;50.168;8.492;2022-09-12T12:00:23;8.80;;;7.90;;
64037;SDS011;54641;50.168;8.492;2022-09-12T12:02:58;9.80;;;8.80;;
64037;SDS011;54641;50.168;8.492;2022-09-12T12:05:33;10.00;;;8.80;;
64037;SDS011;54641;50.168;8.492;2022-09-12T12:08:05;9.50;;;8.20;;
64037;SDS011;54641;50.168;8.492;2022-09-12T12:10:37;8.80;;;7.00;;
64037;SDS011;54641;50.168;8.492;2022-09-12T12:13:14;8.10;;;6.50;;
64037;SDS011;54641;50.168;8.492;2022-09-12T12:15:47;7.60;;;6.80;;
64037;SDS011;54641;50.168;8.492;2022-09-12T12:18:20;9.20;;;7.10;;
64037;SDS011;54641;50.168;8.492;2022-09-12T12:20:52;7.90;;;7.10;;
64037;SDS011;54641;50.168;8.492;2022-09-12T12:23:24;9.70;;;7.10;;
64037;SDS011;54641;50.168;8.492;2022-09-12T12:25:57;8.20;;;6.50;;
64037;SDS011;54641;50.168;8.492;2022-09-12T12:31:26;6.90;;;6.20;;
64037;SDS011;54641;50.168;8.492;2022-09-12T12:34:13;6.30;;;5.70;;
64037;SDS011;54641;50.168;8.492;2022-09-12T12:36:50;6.20;;;5.60;;
64037;SDS011;54641;50.168;8.492;2022-09-12T12:48:52;7.20;;;6.50;;
64037;SDS011;54641;50.168;8.492;2022-09-12T12:51:35;8.20;;;6.10;;
64037;SDS011;54641;50.168;8.492;2022-09-12T12:57:02;6.60;;;6.00;;
64037;SDS011;54641;50.168;8.492;2022-09-12T12:59:45;6.70;;;6.00;;
64037;SDS011;54641;50.168;8.492;2022-09-12T13:02:19;6.20;;;5.60;;
64037;SDS011;54641;50.168;8.492;2022-09-12T13:04:52;6.90;;;6.30;;
64037;SDS011;54641;50.168;8.492;2022-09-12T13:07:26;7.70;;;5.90;;
64037;SDS011;54641;50.168;8.492;2022-09-12T13:09:58;6.60;;;5.90;;
64037;SDS011;54641;50.168;8.492;2022-09-12T13:15:00;6.60;;;5.40;;
64037;SDS011;54641;50.168;8.492;2022-09-12T13:17:35;6.40;;;5.80;;
64037;SDS011;54641;50.168;8.492;2022-09-12T13:20:18;6.10;;;5.40;;
64037;SDS011;54641;50.168;8.492;2022-09-12T13:22:55;6.20;;;5.60;;
64037;SDS011;54641;50.168;8.492;2022-09-12T13:25:28;5.70;;;5.10;;
64037;SDS011;54641;50.168;8.492;2022-09-12T13:28:03;5.80;;;5.20;;
64037;SDS011;54641;50.168;8.492;2022-09-12T13:30:42;6.10;;;5.50;;
64037;SDS011;54641;50.168;8.492;2022-09-12T13:33:17;6.00;;;5.30;;
64037;SDS011;54641;50.168;8.492;2022-09-12T13:35:55;6.80;;;5.30;;
64037;SDS011;54641;50.168;8.492;2022-09-12T13:38:36;6.10;;;5.50;;
64037;SDS011;54641;50.168;8.492;2022-09-12T13:41:24;5.50;;;5.00;;
64037;SDS011;54641;50.168;8.492;2022-09-12T13:44:06;6.50;;;4.90;;
64037;SDS011;54641;50.168;8.492;2022-09-12T13:46:39;6.80;;;5.10;;
64037;SDS011;54641;50.168;8.492;2022-09-12T13:49:12;6.00;;;5.40;;
64037;SDS011;54641;50.168;8.492;2022-09-12T13:51:52;5.90;;;5.00;;
64037;SDS011;54641;50.168;8.492;2022-09-12T13:54:26;5.90;;;5.30;;
64037;SDS011;54641;50.168;8.492;2022-09-12T13:56:57;6.00;;;5.40;;
64037;SDS011;54641;50.168;8.492;2022-09-12T13:59:27;6.50;;;5.30;;
64037;SDS011;54641;50.168;8.492;2022-09-12T14:01:57;6.60;;;5.40;;
64037;SDS011;54641;50.168;8.492;2022-09-12T14:04:29;5.90;;;5.30;;
64037;SDS011;54641;50.168;8.492;2022-09-12T14:07:17;7.10;;;5.80;;
64037;SDS011;54641;50.168;8.492;2022-09-12T14:09:53;5.90;;;5.20;;
64037;SDS011;54641;50.168;8.492;2022-09-12T14:12:25;6.30;;;5.60;;
64037;SDS011;54641;50.168;8.492;2022-09-12T14:14:59;7.20;;;5.00;;
64037;SDS011;54641;50.168;8.492;2022-09-12T14:17:32;6.70;;;4.80;;
64037;SDS011;54641;50.168;8.492;2022-09-12T14:20:05;6.20;;;5.30;;
64037;SDS011;54641;50.168;8.492;2022-09-12T14:22:36;6.90;;;4.80;;
64037;SDS011;54641;50.168;8.492;2022-09-12T14:25:12;7.40;;;5.00;;
64037;SDS011;54641;50.168;8.492;2022-09-12T14:27:45;6.70;;;5.10;;
64037;SDS011;54641;50.168;8.492;2022-09-12T14:30:21;5.10;;;4.20;;
64037;SDS011;54641;50.168;8.492;2022-09-12T14:33:14;6.10;;;4.80;;
64037;SDS011;54641;50.168;8.492;2022-09-12T14:35:47;7.20;;;4.90;;
64037;SDS011;54641;50.168;8.492;2022-09-12T14:38:20;5.90;;;4.70;;
64037;SDS011;54641;50.168;8.492;2022-09-12T14:40:58;7.80;;;5.10;;
64037;SDS011;54641;50.168;8.492;2022-09-12T14:47:37;5.80;;;4.70;;
64037;SDS011;54641;50.168;8.492;2022-09-12T14:51:04;7.20;;;5.10;;
64037;SDS011;54641;50.168;8.492;2022-09-12T14:53:36;7.30;;;4.60;;
64037;SDS011;54641;50.168;8.492;2022-09-12T14:56:08;5.60;;;4.60;;
64037;SDS011;54641;50.168;8.492;2022-09-12T14:58:39;5.30;;;4.50;;
64037;SDS011;54641;50.168;8.492;2022-09-12T15:01:23;5.80;;;4.60;;
64037;SDS011;54641;50.168;8.492;2022-09-12T15:03:54;6.50;;;5.00;;
64037;SDS011;54641;50.168;8.492;2022-09-12T15:06:27;5.20;;;4.70;;
64037;SDS011;54641;50.168;8.492;2022-09-12T15:08:59;6.10;;;4.70;;
64037;SDS011;54641;50.168;8.492;2022-09-12T15:11:32;7.40;;;4.90;;
64037;SDS011;54641;50.168;8.492;2022-09-12T15:14:07;6.90;;;5.40;;
64037;SDS011;54641;50.168;8.492;2022-09-12T15:16:42;7.80;;;4.70;;
64037;SDS011;54641;50.168;8.492;2022-09-12T15:19:12;6.20;;;4.50;;
64037;SDS011;54641;50.168;8.492;2022-09-12T15:21:43;5.90;;;4.40;;
64037;SDS011;54641;50.168;8.492;2022-09-12T15:24:13;5.70;;;4.50;;
64037;SDS011;54641;50.168;8.492;2022-09-12T15:26:43;6.90;;;5.00;;
64037;SDS011;54641;50.168;8.492;2022-09-12T15:29:14;9.30;;;4.50;;
64037;SDS011;54641;50.168;8.492;2022-09-12T15:31:45;7.40;;;4.40;;
64037;SDS011;54641;50.168;8.492;2022-09-12T15:34:16;6.20;;;4.60;;
64037;SDS011;54641;50.168;8.492;2022-09-12T15:36:47;6.10;;;4.30;;
64037;SDS011;54641;50.168;8.492;2022-09-12T15:39:17;7.00;;;5.00;;
64037;SDS011;54641;50.168;8.492;2022-09-12T15:41:47;5.50;;;4.60;;
64037;SDS011;54641;50.168;8.492;2022-09-12T15:44:18;5.20;;;4.20;;
64037;SDS011;54641;50.168;8.492;2022-09-12T15:46:50;7.70;;;4.70;;
64037;SDS011;54641;50.168;8.492;2022-09-12T15:49:21;6.50;;;4.50;;
64037;SDS011;54641;50.168;8.492;2022-09-12T15:51:51;5.60;;;4.20;;
64037;SDS011;54641;50.168;8.492;2022-09-12T15:54:21;6.70;;;4.40;;